Linkebeek, Belgium
Current Conditions -  °F | °C
As of 5:50 PM on Friday 28 Nov 2014 (Local Time) from EBBR Reporting Station
Clear Clear  
Wind Chill: 41°   Ceiling: Unl
Heat Index: 46°   Visibility: 6mi
Dew Point: 41°   Wind: 12mph
Humidity: 81%   Direction: 90°E
Pressure: 29.74"   Gusts: NA
Location:  50.77°N, 4.34°E
Report Text: EBBR 281650Z 09010KT 9000 NSC 08/05 Q1007 NOSIG
Loading
Personal Weather Stations






























Interactive Weather Map New forecast layout! Learn more

10-Day Weather Forecast

Advertisements
Track Severe Weather on mobile